createdAt,value
2017-11-16T00:00:58.801Z,79.67
2017-11-16T00:03:27.685Z,83.47
2017-11-16T00:05:56.560Z,94.40
2017-11-16T00:08:25.410Z,81.40
2017-11-16T00:10:54.291Z,101.83
2017-11-16T00:13:23.137Z,89.53
2017-11-16T00:15:51.973Z,94.07
2017-11-16T00:18:20.849Z,91.07
2017-11-16T00:20:49.791Z,92.83
2017-11-16T00:23:18.660Z,102.33
2017-11-16T00:25:47.542Z,107.43
2017-11-16T00:28:16.377Z,100.73
2017-11-16T00:30:45.576Z,105.80
2017-11-16T00:33:14.449Z,101.00
2017-11-16T00:35:43.309Z,112.50
2017-11-16T00:38:12.184Z,113.10
2017-11-16T00:40:41.315Z,106.30
2017-11-16T00:43:10.186Z,105.93
2017-11-16T00:45:39.042Z,113.53
2017-11-16T00:48:07.930Z,106.37
2017-11-16T00:50:36.780Z,97.50
2017-11-16T00:53:05.620Z,99.00
2017-11-16T00:55:34.518Z,85.10
2017-11-16T00:58:03.361Z,97.50
2017-11-16T01:00:32.242Z,78.00
2017-11-16T01:03:01.128Z,83.87
2017-11-16T01:05:29.981Z,91.03
2017-11-16T01:07:58.879Z,90.63
2017-11-16T01:10:27.760Z,88.20
2017-11-16T01:12:56.601Z,89.50
2017-11-16T01:15:25.447Z,90.30
2017-11-16T01:17:54.314Z,85.97
2017-11-16T01:20:23.162Z,89.80
2017-11-16T01:22:52.047Z,77.27
2017-11-16T01:25:20.966Z,81.60
2017-11-16T01:27:49.870Z,82.07
2017-11-16T01:30:18.713Z,85.07
2017-11-16T01:32:48.332Z,93.60
2017-11-16T01:35:17.934Z,79.50
2017-11-16T01:37:46.781Z,85.00
2017-11-16T01:40:15.688Z,79.20
2017-11-16T01:42:44.612Z,88.20
2017-11-16T01:45:13.461Z,99.13
2017-11-16T01:47:42.329Z,87.63
2017-11-16T01:50:11.193Z,77.73
2017-11-16T01:52:40.048Z,83.43
2017-11-16T01:55:08.945Z,79.50
2017-11-16T01:57:37.808Z,80.70
2017-11-16T02:00:06.699Z,80.83
2017-11-16T02:02:40.366Z,76.57
2017-11-16T02:05:09.273Z,72.07
2017-11-16T02:07:38.122Z,62.40
2017-11-16T02:10:07.120Z,63.60
2017-11-16T02:12:35.977Z,68.40
2017-11-16T02:15:05.054Z,68.47
2017-11-16T02:17:33.935Z,68.53
2017-11-16T02:20:02.799Z,64.83
2017-11-16T02:22:31.661Z,61.33
2017-11-16T02:25:00.771Z,63.07
2017-11-16T02:27:29.662Z,62.03
2017-11-16T02:29:58.549Z,67.67
2017-11-16T02:32:27.425Z,57.67
2017-11-16T02:34:56.659Z,59.23
2017-11-16T02:37:25.514Z,52.67
2017-11-16T02:39:54.860Z,54.87
2017-11-16T02:42:23.743Z,56.17
2017-11-16T02:44:53.581Z,58.47
2017-11-16T02:47:22.468Z,56.40
2017-11-16T02:49:51.669Z,56.97
2017-11-16T02:52:20.559Z,50.60
2017-11-16T02:54:49.424Z,57.47
2017-11-16T02:57:19.027Z,56.47
2017-11-16T02:59:48.267Z,56.83
2017-11-16T03:02:17.135Z,59.30
2017-11-16T03:04:46.018Z,65.50
2017-11-16T03:07:14.869Z,60.73
2017-11-16T03:09:43.726Z,59.30
2017-11-16T03:12:12.606Z,60.30
2017-11-16T03:14:41.445Z,57.87
2017-11-16T03:17:10.334Z,55.13
2017-11-16T03:19:39.465Z,54.23
2017-11-16T03:22:08.336Z,48.77
2017-11-16T03:24:37.247Z,53.93
2017-11-16T03:27:06.084Z,50.87
2017-11-16T03:29:34.967Z,49.13
2017-11-16T03:32:05.170Z,50.13
2017-11-16T03:34:34.033Z,51.00
2017-11-16T03:37:02.955Z,49.40
2017-11-16T03:39:31.833Z,50.23
2017-11-16T03:42:00.707Z,52.93
2017-11-16T03:44:29.569Z,52.43
2017-11-16T03:46:58.433Z,46.97
2017-11-16T03:49:27.285Z,49.13
2017-11-16T03:51:56.133Z,43.77
2017-11-16T03:54:26.921Z,45.33
2017-11-16T03:56:56.433Z,52.37
2017-11-16T03:59:25.316Z,52.17
2017-11-16T04:01:54.164Z,44.60
2017-11-16T04:04:23.019Z,44.97
2017-11-16T04:06:51.913Z,40.53
2017-11-16T04:09:20.775Z,43.83
2017-11-16T04:11:49.957Z,38.67
2017-11-16T04:14:18.828Z,39.57
2017-11-16T04:16:47.695Z,38.13
2017-11-16T04:19:16.556Z,41.97
2017-11-16T04:21:45.648Z,34.07
2017-11-16T04:24:15.247Z,40.37
2017-11-16T04:26:44.127Z,35.20
2017-11-16T04:29:13.023Z,33.97
2017-11-16T04:31:41.883Z,31.33
2017-11-16T04:34:10.761Z,32.03
2017-11-16T04:36:39.642Z,32.57
2017-11-16T04:39:09.144Z,33.97
2017-11-16T04:41:38.037Z,30.43
2017-11-16T04:44:06.897Z,33.17
2017-11-16T04:46:35.733Z,31.40
2017-11-16T04:49:05.567Z,32.93
2017-11-16T04:51:34.433Z,30.17
2017-11-16T04:54:04.229Z,34.17
2017-11-16T04:56:33.084Z,25.27
2017-11-16T04:59:02.007Z,30.80
2017-11-16T05:01:30.877Z,27.20
2017-11-16T05:03:59.822Z,28.27
2017-11-16T05:06:28.741Z,28.57
2017-11-16T05:08:57.634Z,30.67
2017-11-16T05:11:26.593Z,28.97
2017-11-16T05:13:56.338Z,26.30
2017-11-16T05:16:25.607Z,27.93
2017-11-16T05:18:55.120Z,25.87
2017-11-16T05:21:24.057Z,23.63
2017-11-16T05:23:53.144Z,24.57
2017-11-16T05:26:22.999Z,22.27
2017-11-16T05:28:52.067Z,24.10
2017-11-16T05:31:21.359Z,24.73
2017-11-16T05:33:50.228Z,25.57
2017-11-16T05:36:19.150Z,23.53
2017-11-16T05:38:47.991Z,22.73
2017-11-16T05:41:16.881Z,24.43
2017-11-16T05:43:45.749Z,23.23
2017-11-16T05:46:14.605Z,24.70
2017-11-16T05:48:43.445Z,21.27
2017-11-16T05:51:12.939Z,22.20
2017-11-16T05:53:41.926Z,22.43
2017-11-16T05:56:10.857Z,21.23
2017-11-16T05:58:39.746Z,25.80
2017-11-16T06:01:09.298Z,21.30
2017-11-16T06:03:38.140Z,20.17
2017-11-16T06:06:07.033Z,22.57
2017-11-16T06:08:35.947Z,23.77
2017-11-16T06:11:04.922Z,23.50
2017-11-16T06:13:33.809Z,23.37
2017-11-16T06:16:02.700Z,24.57
2017-11-16T06:18:31.565Z,25.73
2017-11-16T06:21:01.267Z,22.70
2017-11-16T06:23:30.217Z,23.03
2017-11-16T06:25:59.131Z,23.20
2017-11-16T06:28:28.503Z,23.83
2017-11-16T06:30:57.815Z,27.70
2017-11-16T06:33:26.653Z,22.47
2017-11-16T06:35:56.651Z,26.73
2017-11-16T06:38:25.517Z,25.17
2017-11-16T06:40:55.317Z,25.07
2017-11-16T06:43:24.182Z,25.83
2017-11-16T06:45:53.030Z,25.37
2017-11-16T06:48:21.891Z,24.07
2017-11-16T06:50:50.830Z,24.00
2017-11-16T06:53:19.701Z,27.87
2017-11-16T06:55:48.575Z,27.40
2017-11-16T06:58:17.459Z,27.37
2017-11-16T07:00:46.494Z,25.83
2017-11-16T07:03:16.051Z,25.93
2017-11-16T07:05:45.671Z,25.60
2017-11-16T07:08:14.521Z,26.63
2017-11-16T07:10:43.399Z,29.20
2017-11-16T07:13:12.274Z,27.83
2017-11-16T07:15:41.139Z,27.73
2017-11-16T07:18:09.981Z,28.47
2017-11-16T07:20:38.961Z,32.00
2017-11-16T07:23:07.819Z,26.23
2017-11-16T07:25:36.889Z,26.43
2017-11-16T07:28:05.755Z,24.50
2017-11-16T07:30:35.437Z,30.67
2017-11-16T07:33:04.280Z,28.77
2017-11-16T07:35:33.187Z,28.00
2017-11-16T07:38:02.133Z,27.77
2017-11-16T07:40:30.993Z,27.80
2017-11-16T07:42:59.881Z,26.93
2017-11-16T07:45:28.778Z,25.73
2017-11-16T07:47:57.634Z,26.23
2017-11-16T07:50:26.535Z,28.47
2017-11-16T07:52:55.377Z,28.00
2017-11-16T07:55:24.249Z,29.20
2017-11-16T07:57:53.155Z,28.23
2017-11-16T08:00:21.999Z,30.60
2017-11-16T08:02:50.895Z,30.57
2017-11-16T08:05:19.797Z,26.77
2017-11-16T08:07:48.639Z,30.30
2017-11-16T08:10:17.494Z,26.67
2017-11-16T08:12:46.505Z,28.77
2017-11-16T08:15:16.263Z,25.90
2017-11-16T08:17:45.151Z,28.73
2017-11-16T08:20:14.021Z,27.57
2017-11-16T08:22:42.873Z,27.67
2017-11-16T08:25:11.716Z,29.43
2017-11-16T08:27:40.585Z,29.43
2017-11-16T08:30:10.349Z,29.73
2017-11-16T08:32:39.245Z,29.67
2017-11-16T08:35:08.155Z,28.83
2017-11-16T08:37:37.537Z,27.97
2017-11-16T08:40:06.457Z,30.30
2017-11-16T08:42:35.325Z,27.17
2017-11-16T08:45:04.181Z,25.90
2017-11-16T08:47:33.037Z,24.27
2017-11-16T08:50:01.909Z,26.87
2017-11-16T08:52:30.827Z,24.37
2017-11-16T08:54:59.673Z,25.30
2017-11-16T08:57:28.569Z,23.57
2017-11-16T08:59:57.423Z,24.50
2017-11-16T09:02:26.275Z,25.87
2017-11-16T09:04:55.169Z,26.43
2017-11-16T09:07:24.249Z,26.53
2017-11-16T09:09:53.090Z,24.80
2017-11-16T09:12:21.961Z,26.43
2017-11-16T09:14:51.359Z,26.40
2017-11-16T09:17:20.216Z,28.70
2017-11-16T09:19:49.198Z,24.83
2017-11-16T09:22:18.044Z,26.30
2017-11-16T09:24:46.896Z,27.27
2017-11-16T09:27:15.825Z,27.97
2017-11-16T09:29:44.686Z,26.00
2017-11-16T09:32:14.062Z,25.33
2017-11-16T09:34:42.946Z,25.17
2017-11-16T09:37:11.831Z,24.30
2017-11-16T09:39:41.245Z,24.40
2017-11-16T09:42:10.131Z,25.37
2017-11-16T09:44:39.041Z,24.23
2017-11-16T09:47:08.647Z,29.83
2017-11-16T09:49:37.533Z,40.20
2017-11-16T09:52:06.394Z,25.83
2017-11-16T09:54:35.241Z,35.43
2017-11-16T09:57:04.561Z,68.17
2017-11-16T09:59:33.584Z,23.20
2017-11-16T10:02:02.551Z,26.80
2017-11-16T10:04:31.417Z,23.83
2017-11-16T10:07:00.264Z,26.07
2017-11-16T10:09:29.153Z,27.23
2017-11-16T10:11:58.028Z,25.47
2017-11-16T10:14:26.869Z,29.67
2017-11-16T10:16:56.365Z,27.23
2017-11-16T10:19:26.117Z,30.20
2017-11-16T10:21:54.967Z,25.53
2017-11-16T10:24:23.834Z,23.63
2017-11-16T10:26:52.720Z,28.80
2017-11-16T10:29:21.611Z,26.53
2017-11-16T10:31:50.485Z,26.00
2017-11-16T10:34:19.361Z,26.70
2017-11-16T10:36:48.581Z,25.70
2017-11-16T10:39:17.444Z,26.47
2017-11-16T10:41:46.314Z,26.50
2017-11-16T10:44:15.163Z,25.43
2017-11-16T10:46:44.025Z,25.17
2017-11-16T10:49:12.905Z,26.93
2017-11-16T10:51:41.789Z,27.90
2017-11-16T10:54:10.645Z,27.50
2017-11-16T10:56:39.532Z,28.40
2017-11-16T10:59:08.427Z,29.27
2017-11-16T11:01:37.276Z,27.70
2017-11-16T11:04:06.167Z,28.37
2017-11-16T11:06:35.015Z,28.57
2017-11-16T11:09:03.924Z,30.33
2017-11-16T11:11:32.783Z,34.17
2017-11-16T11:14:01.637Z,31.83
2017-11-16T11:16:30.515Z,29.97
2017-11-16T11:18:59.381Z,28.00
2017-11-16T11:21:28.227Z,28.63
2017-11-16T11:23:57.081Z,29.40
2017-11-16T11:26:25.971Z,31.00
2017-11-16T11:28:55.802Z,29.53
2017-11-16T11:31:24.654Z,34.47
2017-11-16T11:33:53.568Z,32.17
2017-11-16T11:36:22.425Z,30.40
2017-11-16T11:38:51.269Z,30.87
2017-11-16T11:41:20.171Z,34.43
2017-11-16T11:43:49.009Z,34.67
2017-11-16T11:46:18.112Z,34.97
2017-11-16T11:48:46.993Z,31.83
2017-11-16T11:51:15.825Z,35.63
2017-11-16T11:53:44.677Z,36.47
2017-11-16T11:56:13.597Z,35.97
2017-11-16T11:58:42.462Z,34.40
2017-11-16T12:01:11.359Z,38.60
2017-11-16T12:03:40.245Z,39.43
2017-11-16T12:06:09.089Z,43.43
2017-11-16T12:08:37.945Z,52.77
2017-11-16T12:11:06.823Z,45.27
2017-11-16T12:13:35.668Z,42.77
2017-11-16T12:16:04.517Z,36.67
2017-11-16T12:18:33.393Z,38.07
2017-11-16T12:21:02.245Z,41.20
2017-11-16T12:23:31.105Z,43.67
2017-11-16T12:25:59.992Z,39.60
2017-11-16T12:28:28.840Z,56.47
2017-11-16T12:30:57.700Z,41.00
2017-11-16T12:33:27.465Z,37.20
2017-11-16T12:35:56.333Z,44.45
2017-11-16T12:38:25.173Z,39.47
2017-11-16T12:40:54.069Z,39.93
2017-11-16T12:43:22.950Z,39.37
2017-11-16T12:45:51.812Z,36.87
2017-11-16T12:48:20.707Z,40.90
2017-11-16T12:50:49.597Z,43.73
2017-11-16T12:53:18.461Z,41.40
2017-11-16T12:55:47.339Z,38.33
2017-11-16T12:58:16.232Z,37.40
2017-11-16T13:00:45.082Z,44.27
2017-11-16T13:03:13.975Z,34.60
2017-11-16T13:05:42.813Z,41.10
2017-11-16T13:08:11.682Z,45.80
2017-11-16T13:10:40.562Z,42.30
2017-11-16T13:13:09.421Z,44.10
2017-11-16T13:15:38.299Z,35.47
2017-11-16T13:18:07.185Z,42.87
2017-11-16T13:20:36.043Z,43.43
2017-11-16T13:23:04.971Z,40.20
2017-11-16T13:25:33.837Z,43.20
2017-11-16T13:28:02.732Z,43.53
2017-11-16T13:30:31.592Z,46.47
2017-11-16T13:33:01.033Z,49.70
2017-11-16T13:35:29.915Z,51.77
2017-11-16T13:37:59.371Z,46.63
2017-11-16T13:40:28.303Z,43.57
2017-11-16T13:42:57.154Z,44.87
2017-11-16T13:45:26.050Z,43.20
2017-11-16T13:47:54.965Z,49.20
2017-11-16T13:53:09.860Z,46.77
2017-11-16T13:55:38.716Z,47.10
2017-11-16T13:58:07.578Z,44.67
2017-11-16T14:00:36.467Z,46.83
2017-11-16T14:03:05.333Z,52.47
2017-11-16T14:05:34.187Z,71.93
2017-11-16T14:08:03.133Z,53.03
2017-11-16T14:10:31.979Z,53.83
2017-11-16T14:13:00.841Z,57.33
2017-11-16T14:15:29.709Z,55.47
2017-11-16T14:17:58.571Z,56.33
2017-11-16T14:20:27.426Z,60.50
2017-11-16T14:22:56.324Z,60.03
2017-11-16T14:25:25.163Z,60.57
2017-11-16T14:27:54.023Z,57.57
2017-11-16T14:30:22.937Z,61.83
2017-11-16T14:32:51.807Z,61.63
2017-11-16T14:35:20.684Z,57.13
2017-11-16T14:37:49.664Z,63.60
2017-11-16T14:40:18.503Z,62.40
2017-11-16T14:42:47.393Z,68.93
2017-11-16T14:45:16.309Z,62.13
2017-11-16T14:47:45.170Z,59.53
2017-11-16T14:50:14.035Z,60.57
2017-11-16T14:52:42.920Z,63.03
2017-11-16T14:55:11.776Z,58.30
2017-11-16T14:57:40.634Z,64.30
2017-11-16T15:00:11.533Z,58.97
2017-11-16T15:02:41.112Z,63.50
2017-11-16T15:05:10.017Z,60.80
2017-11-16T15:07:38.882Z,63.37
2017-11-16T15:10:07.741Z,60.87
2017-11-16T15:12:36.642Z,65.60
2017-11-16T15:15:05.506Z,63.27
2017-11-16T15:17:34.402Z,62.63
2017-11-16T15:20:03.321Z,60.47
2017-11-16T15:22:32.175Z,54.67
2017-11-16T15:25:01.059Z,57.37
2017-11-16T15:27:29.928Z,60.17
2017-11-16T15:29:59.396Z,62.13
2017-11-16T15:32:28.307Z,57.37
2017-11-16T15:34:57.199Z,61.03
2017-11-16T15:37:26.048Z,54.53
2017-11-16T15:39:55.002Z,56.40
2017-11-16T15:42:23.916Z,59.27
2017-11-16T15:44:53.662Z,49.23
2017-11-16T15:47:22.509Z,49.60
2017-11-16T15:49:52.122Z,52.23
2017-11-16T15:52:21.933Z,53.73
2017-11-16T15:54:50.777Z,53.50
2017-11-16T15:57:19.662Z,56.10
2017-11-16T15:59:48.511Z,52.00
2017-11-16T16:02:17.389Z,51.60
2017-11-16T16:04:46.298Z,49.80
2017-11-16T16:07:15.144Z,54.13
2017-11-16T16:09:44.013Z,54.53
2017-11-16T16:12:12.884Z,54.83
2017-11-16T16:14:41.742Z,190.17
2017-11-16T16:17:10.594Z,53.50
2017-11-16T16:19:39.471Z,54.47
2017-11-16T16:22:08.322Z,50.60
2017-11-16T16:24:37.174Z,46.83
2017-11-16T16:27:06.064Z,50.20
2017-11-16T16:29:34.910Z,84.93
2017-11-16T16:32:03.788Z,54.77
2017-11-16T16:34:32.662Z,49.63
2017-11-16T16:37:01.501Z,52.40
2017-11-16T16:39:30.371Z,52.30
2017-11-16T16:41:59.889Z,49.93
2017-11-16T16:44:28.749Z,62.60
2017-11-16T16:46:57.606Z,46.13
2017-11-16T16:49:26.607Z,48.60
2017-11-16T16:51:56.166Z,50.47
2017-11-16T16:54:25.061Z,47.73
2017-11-16T16:56:53.994Z,47.77
2017-11-16T16:59:23.433Z,51.27
2017-11-16T17:01:52.324Z,59.60
2017-11-16T17:04:21.205Z,51.83
2017-11-16T17:06:50.184Z,97.07
2017-11-16T17:09:19.048Z,64.37
2017-11-16T17:11:47.919Z,56.33
2017-11-16T17:14:16.773Z,52.13
2017-11-16T17:16:45.630Z,51.37
2017-11-16T17:19:14.495Z,50.47
2017-11-16T17:21:43.343Z,51.70
2017-11-16T17:24:12.200Z,54.63
2017-11-16T17:26:41.074Z,54.83
2017-11-16T17:29:09.926Z,51.00
2017-11-16T17:31:38.774Z,59.60
2017-11-16T17:34:07.642Z,56.40
2017-11-16T17:36:36.480Z,54.33
2017-11-16T17:39:05.399Z,56.77
2017-11-16T17:41:34.287Z,58.73
2017-11-16T17:44:03.150Z,64.27
2017-11-16T17:46:32.003Z,64.83
2017-11-16T17:49:00.866Z,65.63
2017-11-16T17:51:30.551Z,69.77
2017-11-16T17:54:00.231Z,65.23
2017-11-16T17:56:29.132Z,72.67
2017-11-16T17:58:57.987Z,60.97
2017-11-16T18:01:26.835Z,68.87
2017-11-16T18:03:55.730Z,69.30
2017-11-16T18:06:24.576Z,62.13
2017-11-16T18:08:53.458Z,69.53
2017-11-16T18:11:22.389Z,61.97
2017-11-16T18:13:51.237Z,62.37
2017-11-16T18:16:20.096Z,73.27
2017-11-16T18:18:49.008Z,66.67
2017-11-16T18:21:17.882Z,69.77
2017-11-16T18:23:46.747Z,63.50
2017-11-16T18:26:15.654Z,65.90
2017-11-16T18:28:44.506Z,65.77
2017-11-16T18:31:13.398Z,70.03
2017-11-16T18:33:42.313Z,73.33
2017-11-16T18:36:11.159Z,74.17
2017-11-16T18:38:40.022Z,71.90
2017-11-16T18:41:08.919Z,71.07
2017-11-16T18:43:37.769Z,68.63
2017-11-16T18:46:06.624Z,79.23
2017-11-16T18:48:35.555Z,72.17
2017-11-16T18:51:04.444Z,77.57
2017-11-16T18:53:33.333Z,106.57
2017-11-16T18:56:02.228Z,101.20
2017-11-16T18:58:31.109Z,71.77
2017-11-16T19:00:59.966Z,77.37
2017-11-16T19:03:28.882Z,74.07
2017-11-16T19:05:57.732Z,82.07
2017-11-16T19:08:26.591Z,92.47
2017-11-16T19:10:55.489Z,76.00
2017-11-16T19:13:24.357Z,83.07
2017-11-16T19:15:53.211Z,75.67
2017-11-16T19:18:22.109Z,77.97
2017-11-16T19:20:50.961Z,70.97
2017-11-16T19:23:19.919Z,72.70
2017-11-16T19:25:49.869Z,77.97
2017-11-16T19:28:19.433Z,74.47
2017-11-16T19:30:48.282Z,79.80
2017-11-16T19:33:17.176Z,70.37
2017-11-16T19:35:46.021Z,73.37
2017-11-16T19:38:15.249Z,82.23
2017-11-16T19:40:44.125Z,74.53
2017-11-16T19:43:12.984Z,77.93
2017-11-16T19:45:42.668Z,83.90
2017-11-16T19:48:11.535Z,73.97
2017-11-16T19:50:40.389Z,78.73
2017-11-16T19:53:09.590Z,75.57
2017-11-16T19:55:38.457Z,75.23
2017-11-16T19:58:07.333Z,81.50
2017-11-16T20:00:36.191Z,77.63
2017-11-16T20:03:05.065Z,71.10
2017-11-16T20:05:33.925Z,85.00
2017-11-16T20:08:02.815Z,78.30
2017-11-16T20:10:31.746Z,77.60
2017-11-16T20:13:01.268Z,82.83
2017-11-16T20:15:30.113Z,78.00
2017-11-16T20:17:58.992Z,72.97
2017-11-16T20:20:27.878Z,82.40
2017-11-16T20:22:56.739Z,76.47
2017-11-16T20:25:25.611Z,85.17
2017-11-16T20:27:54.469Z,75.27
2017-11-16T20:30:23.328Z,73.47
2017-11-16T20:32:52.224Z,72.27
2017-11-16T20:35:21.559Z,78.87
2017-11-16T20:37:57.162Z,72.40
2017-11-16T20:40:26.014Z,74.40
2017-11-16T20:43:15.627Z,73.23
2017-11-16T20:46:03.225Z,80.57
2017-11-16T20:48:46.996Z,70.73
2017-11-16T20:51:17.994Z,72.20
2017-11-16T20:53:48.546Z,78.23
2017-11-16T20:56:17.390Z,85.07
2017-11-16T20:58:46.300Z,81.23
2017-11-16T21:01:15.498Z,74.33
2017-11-16T21:03:44.410Z,75.33
2017-11-16T21:06:14.157Z,80.93
2017-11-16T21:08:43.022Z,79.70
2017-11-16T21:11:11.875Z,77.53
2017-11-16T21:13:40.741Z,79.07
2017-11-16T21:16:09.665Z,82.27
2017-11-16T21:18:39.297Z,72.73
2017-11-16T21:21:08.192Z,72.03
2017-11-16T21:23:37.860Z,83.00
2017-11-16T21:26:06.745Z,85.60
2017-11-16T21:28:35.606Z,82.00
2017-11-16T21:31:04.508Z,82.20
2017-11-16T21:33:33.387Z,74.47
2017-11-16T21:36:02.261Z,77.50
2017-11-16T21:38:31.118Z,78.47
2017-11-16T21:40:59.990Z,69.57
2017-11-16T21:43:29.176Z,81.23
2017-11-16T21:45:58.178Z,81.30
2017-11-16T21:48:27.703Z,73.70
2017-11-16T21:50:56.735Z,78.17
2017-11-16T21:53:25.618Z,84.77
2017-11-16T21:55:54.515Z,85.57
2017-11-16T22:00:57.513Z,89.10
2017-11-16T22:03:26.369Z,89.70
2017-11-16T22:05:55.213Z,85.43
2017-11-16T22:08:24.111Z,97.63
2017-11-16T22:10:52.991Z,99.90
2017-11-16T22:13:21.933Z,91.97
2017-11-16T22:15:50.806Z,96.77
2017-11-16T22:18:19.663Z,88.60
2017-11-16T22:20:48.508Z,91.63
2017-11-16T22:23:17.422Z,94.33
2017-11-16T22:25:46.316Z,88.07
2017-11-16T22:28:15.153Z,93.80
2017-11-16T22:30:44.022Z,91.57
2017-11-16T22:33:12.874Z,94.47
2017-11-16T22:35:42.169Z,96.37
2017-11-16T22:38:11.110Z,103.73
2017-11-16T22:40:46.329Z,96.70
2017-11-16T22:43:22.138Z,58.40
2017-11-16T22:45:57.404Z,46.63
2017-11-16T22:48:33.495Z,39.30
2017-11-16T22:51:09.098Z,30.63
2017-11-16T22:53:46.202Z,26.93
2017-11-16T22:56:23.550Z,24.97
2017-11-16T22:58:59.648Z,18.73
2017-11-16T23:01:35.088Z,21.37
2017-11-16T23:04:04.644Z,15.83
2017-11-16T23:06:35.178Z,16.30
2017-11-16T23:09:04.561Z,17.97
2017-11-16T23:11:35.172Z,15.17
2017-11-16T23:14:04.184Z,15.90
2017-11-16T23:16:34.820Z,16.43
2017-11-16T23:19:04.004Z,15.40
2017-11-16T23:21:33.159Z,16.57
2017-11-16T23:24:02.987Z,17.97
2017-11-16T23:26:31.973Z,21.33
2017-11-16T23:29:00.827Z,19.10
2017-11-16T23:31:29.668Z,22.10
2017-11-16T23:33:58.543Z,17.10
2017-11-16T23:36:27.381Z,19.90
2017-11-16T23:38:56.691Z,19.53
2017-11-16T23:41:27.052Z,23.60
2017-11-16T23:43:55.901Z,18.47
2017-11-16T23:46:24.772Z,19.57
2017-11-16T23:48:53.635Z,21.27
2017-11-16T23:51:22.504Z,20.70
2017-11-16T23:53:51.360Z,21.07
2017-11-16T23:56:20.235Z,24.13
2017-11-16T23:58:49.089Z,21.93
